• Join FlightAware (Why Join?)
  • Login
  • US Flag 
10:28AM EDT


 

Airport Tracker/Info


-or-


 

Live Flight TrackerFlight Track Log ✈ RPA3321 ✈ 19-Jun-2013 ✈ KALB - KDCA

Flight Track Log - Related Links

Times and Time Zones

All times are in EDT time to prevent confusion due to time zone crossing. See the RPA3321 flight status page for this flight to view local times or setup timezone preferences in your user account.

Time Position Orientation Groundspeed Altitude Reporting Facility
EDT Latitude Longitude Course Direction KTS MPH feet Rate Location/Type
05:40AM 42.7653 -73.8089 118° Southeast 143 165 1,600  Level Boston Center
05:41AM 42.7817 -73.8292 318° Northwest 161 185 2,500 2,700 Climbing Boston Center
05:42AM 42.8178 -73.9489 292° West 240 276 7,400 2,820 Climbing Boston Center
05:43AM 42.8164 -74.0364 269° West 240 276 10,000 2,520 Climbing Boston Center
05:44AM 42.7878 -74.1489 251° West 270 311 12,500 2,520 Climbing Boston Center
05:45AM 42.2661 -74.2287 169° South  Level Estimated
05:45AM 42.7158 -74.2092 212° Southwest 284 327 15,100  Level Boston Center
05:46AM 42.2205 -74.1145 118° Southeast  Level FlightAware Approximate
05:46AM 42.6222 -74.2036 177° South 308 354 17,300  Level Boston Center
05:47AM 42.5478 -74.1564 155° Southeast 321 369 18,800 1,860 Climbing Boston Center
05:48AM 42.4467 -74.0889 154° Southeast 340 391 21,100 2,040 Climbing Boston Center
05:49AM 42.3519 -74.0189 151° Southeast 362 417 22,900 1,740 Climbing Boston Center
05:50AM 42.2550 -73.9492 152° Southeast 386 444 24,600 1,560 Climbing Boston Center
05:51AM 42.1536 -73.8881 156° South 399 459 26,100 1,500 Climbing Boston Center
05:52AM 42.0475 -73.8769 176° South 384 442 27,700 1,560 Climbing Boston Center
05:53AM 41.9392 -73.8692 177° South 384 442 29,300 1,140 Climbing Boston Center
05:54AM 41.8331 -73.8583 176° South 389 448 30,000 180 Climbing Boston Center
05:57AM 41.6153 -73.8372 176° South 364 419 30,000  Level New York Center
05:58AM 41.5303 -73.8278 175° South 355 409 30,000  Level New York Center
05:59AM 41.4375 -73.8650 197° South 343 395 30,000  Level New York Center
06:00AM 41.3608 -73.9306 213° Southwest 332 382 30,000  Level New York Center
06:01AM 41.2819 -73.9986 213° Southwest 332 382 30,000  Level New York Center
06:02AM 41.2031 -74.0636 212° Southwest 337 388 30,000  Level New York Center
06:03AM 41.1264 -74.1289 213° Southwest 337 388 30,000  Level New York Center
06:04AM 41.0389 -74.1961 210° Southwest 337 388 30,000  Level New York Center
06:05AM 40.9622 -74.2608 213° Southwest 332 382 30,000  Level New York Center
06:06AM 40.8831 -74.3253 212° Southwest 332 382 30,000 -900 Level New York Center
06:07AM 40.8147 -74.3794 211° Southwest 337 388 28,300 -1,020 Descending New York Center
06:08AM 40.7364 -74.4903 227° Southwest 344 396 28,000 -180 Descending New York Center
06:09AM 40.6769 -74.5883 231° Southwest 344 396 28,000  Level New York Center
06:10AM 40.6153 -74.6886 231° Southwest 349 402 28,000  Level New York Center
06:11AM 40.5536 -74.7889 231° Southwest 359 413 28,000  Level New York Center
06:12AM 40.4858 -74.8806 226° Southwest 359 413 28,000  Level New York Center
06:13AM 40.4200 -74.9747 227° Southwest 359 413 28,000  Level New York Center
06:14AM 40.3519 -75.0686 226° Southwest 359 413 28,000 -960 Level New York Center
06:15AM 40.2861 -75.1625 227° Southwest 359 413 26,200 -1,860 Descending New York Center
06:16AM 40.2200 -75.2533 226° Southwest 359 413 24,400 -1,800 Descending New York Center
06:17AM 40.1606 -75.3419 229° Southwest 354 407 22,600 -1,200 Descending New York Center
06:18AM 40.1011 -75.4222 226° Southwest 354 407 22,000 -360 Descending New York Center
06:19AM 40.0392 -75.5075 227° Southwest 343 395 22,000  Level New York Center
06:20AM 39.9772 -75.6008 229° Southwest 338 389 22,000  Level New York Center
06:21AM 39.9169 -75.6942 230° Southwest 344 396 22,000  Level New York Center
06:22AM 39.8589 -75.7875 231° Southwest 344 396 22,000  Level New York Center
06:23AM 39.8008 -75.8778 230° Southwest 344 396 22,000 -1,140 Level New York Center
06:24AM 39.6833 -76.0500 228° Southwest 326 375 18,800 -1,740 Descending Potomac TRACON
06:25AM 39.6167 -76.1500 229° Southwest 324 373 17,100 -1,740 Descending Potomac TRACON
06:26AM 39.5667 -76.2333 232° Southwest 320 368 15,400 -1,740 Descending Potomac TRACON
06:27AM 39.5167 -76.3167 232° Southwest 318 366 13,700 -1,740 Descending Potomac TRACON
06:28AM 39.4500 -76.4167 229° Southwest 310 357 12,000 -1,260 Descending Potomac TRACON
06:29AM 39.4000 -76.4667 218° Southwest 311 358 11,400 -780 Descending Potomac TRACON
06:30AM 39.3167 -76.5333 212° Southwest 311 358 10,600 -720 Descending Potomac TRACON
06:31AM 39.2500 -76.5833 210° Southwest 304 350 10,000 -360 Descending Potomac TRACON
06:32AM 39.2000 -76.6500 226° Southwest 288 331 10,000  Level Potomac TRACON
06:33AM 39.1333 -76.7000 210° Southwest 284 327 10,000  Level Potomac TRACON
06:34AM 39.0667 -76.7833 224° Southwest 284 327 10,000 -780 Level Potomac TRACON
06:35AM 39.0333 -76.8333 229° Southwest 282 325 8,700 -1,860 Descending Potomac TRACON
06:36AM 38.9667 -76.9000 218° Southwest 282 325 6,500 -1,380 Descending Potomac TRACON
06:37AM 38.9000 -76.9500 210° Southwest 282 325 6,000 -300 Descending Potomac TRACON
06:38AM 38.8333 -76.9500 180° South 294 338 6,000 -120 Level Potomac TRACON
06:39AM 38.7500 -76.9500 180° South 279 321 5,800 -960 Descending Potomac TRACON
06:40AM 38.6833 -76.9500 180° South 278 320 4,200 -1,380 Descending Potomac TRACON
06:41AM 38.6667 -77.0333 256° West 243 280 3,100 -840 Descending Potomac TRACON
06:42AM 38.7000 -77.0500 339° North 175 201 2,700 -480 Descending Potomac TRACON